sensor_id;sensor_type;location;lat;lon;timestamp;temperature;humidity
18153;DHT22;9202;51.578;7.734;2023-01-04T00:00:58;8.50;99.90
18153;DHT22;9202;51.578;7.734;2023-01-04T00:03:01;8.50;99.90
18153;DHT22;9202;51.578;7.734;2023-01-04T00:05:05;8.60;99.90
18153;DHT22;9202;51.578;7.734;2023-01-04T00:07:07;8.70;99.90
18153;DHT22;9202;51.578;7.734;2023-01-04T00:09:10;8.70;99.90
18153;DHT22;9202;51.578;7.734;2023-01-04T00:11:13;8.60;99.90
18153;DHT22;9202;51.578;7.734;2023-01-04T00:13:17;8.70;99.90
18153;DHT22;9202;51.578;7.734;2023-01-04T00:15:21;8.70;99.90
18153;DHT22;9202;51.578;7.734;2023-01-04T00:17:24;8.70;99.90
18153;DHT22;9202;51.578;7.734;2023-01-04T00:19:26;8.70;99.90
18153;DHT22;9202;51.578;7.734;2023-01-04T00:21:29;8.70;99.90
18153;DHT22;9202;51.578;7.734;2023-01-04T00:23:32;8.70;99.90
18153;DHT22;9202;51.578;7.734;2023-01-04T00:25:37;8.80;99.90
18153;DHT22;9202;51.578;7.734;2023-01-04T00:27:40;8.80;99.90
18153;DHT22;9202;51.578;7.734;2023-01-04T00:29:43;8.90;99.90
18153;DHT22;9202;51.578;7.734;2023-01-04T00:31:45;8.80;99.90
18153;DHT22;9202;51.578;7.734;2023-01-04T00:33:48;8.80;99.90
18153;DHT22;9202;51.578;7.734;2023-01-04T00:35:50;8.90;99.90
18153;DHT22;9202;51.578;7.734;2023-01-04T00:37:53;8.80;99.90
18153;DHT22;9202;51.578;7.734;2023-01-04T00:39:55;8.80;99.90
18153;DHT22;9202;51.578;7.734;2023-01-04T00:41:58;8.80;99.90
18153;DHT22;9202;51.578;7.734;2023-01-04T00:44:04;8.70;99.90
18153;DHT22;9202;51.578;7.734;2023-01-04T00:46:06;8.80;99.90
18153;DHT22;9202;51.578;7.734;2023-01-04T00:48:11;8.80;99.90
18153;DHT22;9202;51.578;7.734;2023-01-04T00:50:13;8.80;99.90
18153;DHT22;9202;51.578;7.734;2023-01-04T00:52:16;8.80;99.90
18153;DHT22;9202;51.578;7.734;2023-01-04T00:54:19;8.80;99.90
18153;DHT22;9202;51.578;7.734;2023-01-04T00:56:21;8.80;99.90
18153;DHT22;9202;51.578;7.734;2023-01-04T00:58:24;8.80;99.90
18153;DHT22;9202;51.578;7.734;2023-01-04T01:00:26;8.80;99.90
18153;DHT22;9202;51.578;7.734;2023-01-04T01:02:29;8.90;99.90
18153;DHT22;9202;51.578;7.734;2023-01-04T01:04:32;8.90;99.90
18153;DHT22;9202;51.578;7.734;2023-01-04T01:06:35;9.00;99.90
18153;DHT22;9202;51.578;7.734;2023-01-04T01:08:37;9.00;99.90
18153;DHT22;9202;51.578;7.734;2023-01-04T01:10:40;9.00;99.90
18153;DHT22;9202;51.578;7.734;2023-01-04T01:12:42;9.10;99.90
18153;DHT22;9202;51.578;7.734;2023-01-04T01:14:45;9.10;99.90
18153;DHT22;9202;51.578;7.734;2023-01-04T01:16:47;9.10;99.90
18153;DHT22;9202;51.578;7.734;2023-01-04T01:18:52;9.00;99.90
18153;DHT22;9202;51.578;7.734;2023-01-04T01:20:55;9.10;99.90
18153;DHT22;9202;51.578;7.734;2023-01-04T01:22:57;9.10;99.90
18153;DHT22;9202;51.578;7.734;2023-01-04T01:25:00;9.10;99.90
18153;DHT22;9202;51.578;7.734;2023-01-04T01:27:03;9.10;99.90
18153;DHT22;9202;51.578;7.734;2023-01-04T01:29:05;9.10;99.90
18153;DHT22;9202;51.578;7.734;2023-01-04T01:31:08;9.10;99.90
18153;DHT22;9202;51.578;7.734;2023-01-04T01:33:11;9.10;99.90
18153;DHT22;9202;51.578;7.734;2023-01-04T01:35:14;9.10;99.90
18153;DHT22;9202;51.578;7.734;2023-01-04T01:37:16;9.10;99.90
18153;DHT22;9202;51.578;7.734;2023-01-04T01:39:19;9.10;99.90
18153;DHT22;9202;51.578;7.734;2023-01-04T01:41:22;9.10;99.90
18153;DHT22;9202;51.578;7.734;2023-01-04T01:43:44;9.20;99.90
18153;DHT22;9202;51.578;7.734;2023-01-04T01:45:48;9.30;99.90
18153;DHT22;9202;51.578;7.734;2023-01-04T01:47:50;9.20;99.90
18153;DHT22;9202;51.578;7.734;2023-01-04T01:49:53;9.20;99.90
18153;DHT22;9202;51.578;7.734;2023-01-04T01:51:56;9.20;99.90
18153;DHT22;9202;51.578;7.734;2023-01-04T01:54:01;9.20;99.90
18153;DHT22;9202;51.578;7.734;2023-01-04T01:56:06;9.20;99.90
18153;DHT22;9202;51.578;7.734;2023-01-04T01:58:11;9.20;99.90
18153;DHT22;9202;51.578;7.734;2023-01-04T02:00:15;9.10;99.90
18153;DHT22;9202;51.578;7.734;2023-01-04T02:02:17;9.20;99.90
18153;DHT22;9202;51.578;7.734;2023-01-04T02:04:20;9.10;99.90
18153;DHT22;9202;51.578;7.734;2023-01-04T02:06:26;9.00;99.90
18153;DHT22;9202;51.578;7.734;2023-01-04T02:08:28;9.00;99.90
18153;DHT22;9202;51.578;7.734;2023-01-04T02:10:31;9.00;99.90
18153;DHT22;9202;51.578;7.734;2023-01-04T02:12:34;9.00;99.90
18153;DHT22;9202;51.578;7.734;2023-01-04T02:14:36;9.00;99.90
18153;DHT22;9202;51.578;7.734;2023-01-04T02:16:46;9.00;99.90
18153;DHT22;9202;51.578;7.734;2023-01-04T02:18:45;9.00;99.90
18153;DHT22;9202;51.578;7.734;2023-01-04T02:20:49;9.00;99.90
18153;DHT22;9202;51.578;7.734;2023-01-04T02:25:18;8.90;99.90
18153;DHT22;9202;51.578;7.734;2023-01-04T02:27:41;8.90;99.90
18153;DHT22;9202;51.578;7.734;2023-01-04T02:29:58;8.90;99.90
18153;DHT22;9202;51.578;7.734;2023-01-04T02:32:01;8.90;99.90
18153;DHT22;9202;51.578;7.734;2023-01-04T02:34:06;8.90;99.90
18153;DHT22;9202;51.578;7.734;2023-01-04T02:36:10;8.90;99.90
18153;DHT22;9202;51.578;7.734;2023-01-04T02:38:17;8.80;99.90
18153;DHT22;9202;51.578;7.734;2023-01-04T02:40:21;8.90;99.90
18153;DHT22;9202;51.578;7.734;2023-01-04T02:42:27;8.80;99.90
18153;DHT22;9202;51.578;7.734;2023-01-04T02:44:37;8.90;99.90
18153;DHT22;9202;51.578;7.734;2023-01-04T02:46:56;8.90;99.90
18153;DHT22;9202;51.578;7.734;2023-01-04T02:48:59;8.90;99.90
18153;DHT22;9202;51.578;7.734;2023-01-04T02:51:24;8.90;99.90
18153;DHT22;9202;51.578;7.734;2023-01-04T02:53:28;8.80;99.90
18153;DHT22;9202;51.578;7.734;2023-01-04T02:55:35;8.70;99.90
18153;DHT22;9202;51.578;7.734;2023-01-04T02:57:40;8.70;99.90
18153;DHT22;9202;51.578;7.734;2023-01-04T02:59:49;8.70;99.90
18153;DHT22;9202;51.578;7.734;2023-01-04T03:01:55;8.60;99.90
18153;DHT22;9202;51.578;7.734;2023-01-04T03:04:19;8.60;99.90
18153;DHT22;9202;51.578;7.734;2023-01-04T03:06:40;8.50;99.90
18153;DHT22;9202;51.578;7.734;2023-01-04T03:08:48;8.40;99.90
18153;DHT22;9202;51.578;7.734;2023-01-04T03:10:52;8.50;99.90
18153;DHT22;9202;51.578;7.734;2023-01-04T03:12:56;8.50;99.90
18153;DHT22;9202;51.578;7.734;2023-01-04T03:15:02;8.50;99.90
18153;DHT22;9202;51.578;7.734;2023-01-04T03:17:06;8.40;99.90
18153;DHT22;9202;51.578;7.734;2023-01-04T03:19:09;8.40;99.90
18153;DHT22;9202;51.578;7.734;2023-01-04T03:21:12;8.40;99.90
18153;DHT22;9202;51.578;7.734;2023-01-04T03:23:16;8.40;99.90
18153;DHT22;9202;51.578;7.734;2023-01-04T03:25:39;8.30;99.90
18153;DHT22;9202;51.578;7.734;2023-01-04T03:28:01;8.40;99.90
18153;DHT22;9202;51.578;7.734;2023-01-04T03:30:21;8.40;99.90
18153;DHT22;9202;51.578;7.734;2023-01-04T03:32:44;8.40;99.90
18153;DHT22;9202;51.578;7.734;2023-01-04T03:35:06;8.50;99.90
18153;DHT22;9202;51.578;7.734;2023-01-04T03:37:35;8.40;99.90
18153;DHT22;9202;51.578;7.734;2023-01-04T03:39:40;8.40;99.90
18153;DHT22;9202;51.578;7.734;2023-01-04T03:42:03;8.40;99.90
18153;DHT22;9202;51.578;7.734;2023-01-04T03:44:27;8.50;99.90
18153;DHT22;9202;51.578;7.734;2023-01-04T03:46:47;8.50;99.90
18153;DHT22;9202;51.578;7.734;2023-01-04T03:49:10;8.50;99.90
18153;DHT22;9202;51.578;7.734;2023-01-04T03:51:14;8.50;99.90
18153;DHT22;9202;51.578;7.734;2023-01-04T03:53:18;8.50;99.90
18153;DHT22;9202;51.578;7.734;2023-01-04T03:55:21;8.50;99.90
18153;DHT22;9202;51.578;7.734;2023-01-04T03:57:25;8.50;99.90
18153;DHT22;9202;51.578;7.734;2023-01-04T03:59:28;8.50;99.90
18153;DHT22;9202;51.578;7.734;2023-01-04T04:01:31;8.50;99.90
18153;DHT22;9202;51.578;7.734;2023-01-04T04:03:33;8.50;99.90
18153;DHT22;9202;51.578;7.734;2023-01-04T04:05:54;8.50;99.90
18153;DHT22;9202;51.578;7.734;2023-01-04T04:08:15;8.50;99.90
18153;DHT22;9202;51.578;7.734;2023-01-04T04:10:30;8.60;99.90
18153;DHT22;9202;51.578;7.734;2023-01-04T04:12:32;8.60;99.90
18153;DHT22;9202;51.578;7.734;2023-01-04T04:14:35;8.70;99.90
18153;DHT22;9202;51.578;7.734;2023-01-04T04:16:37;8.70;99.90
18153;DHT22;9202;51.578;7.734;2023-01-04T04:18:40;8.80;99.90
18153;DHT22;9202;51.578;7.734;2023-01-04T04:20:43;8.70;99.90
18153;DHT22;9202;51.578;7.734;2023-01-04T04:22:45;8.80;99.90
18153;DHT22;9202;51.578;7.734;2023-01-04T04:24:48;8.90;99.90
18153;DHT22;9202;51.578;7.734;2023-01-04T04:26:50;8.90;99.90
18153;DHT22;9202;51.578;7.734;2023-01-04T04:28:53;8.80;99.90
18153;DHT22;9202;51.578;7.734;2023-01-04T04:30:55;8.90;99.90
18153;DHT22;9202;51.578;7.734;2023-01-04T04:32:58;8.90;99.90
18153;DHT22;9202;51.578;7.734;2023-01-04T04:35:00;8.90;99.90
18153;DHT22;9202;51.578;7.734;2023-01-04T04:37:03;8.90;99.90
18153;DHT22;9202;51.578;7.734;2023-01-04T04:39:05;8.90;99.90
18153;DHT22;9202;51.578;7.734;2023-01-04T04:41:08;8.80;99.90
18153;DHT22;9202;51.578;7.734;2023-01-04T04:43:30;8.80;99.90
18153;DHT22;9202;51.578;7.734;2023-01-04T04:45:33;8.70;99.90
18153;DHT22;9202;51.578;7.734;2023-01-04T04:47:36;8.60;99.90
18153;DHT22;9202;51.578;7.734;2023-01-04T04:49:38;8.60;99.90
18153;DHT22;9202;51.578;7.734;2023-01-04T04:51:41;8.50;99.90
18153;DHT22;9202;51.578;7.734;2023-01-04T04:53:44;8.50;99.90
18153;DHT22;9202;51.578;7.734;2023-01-04T04:55:49;8.50;99.90
18153;DHT22;9202;51.578;7.734;2023-01-04T04:57:50;8.60;99.90
18153;DHT22;9202;51.578;7.734;2023-01-04T04:59:53;8.50;99.90
18153;DHT22;9202;51.578;7.734;2023-01-04T05:01:55;8.60;99.90
18153;DHT22;9202;51.578;7.734;2023-01-04T05:03:58;8.60;99.90
18153;DHT22;9202;51.578;7.734;2023-01-04T05:06:01;8.60;99.90
18153;DHT22;9202;51.578;7.734;2023-01-04T05:08:04;8.50;99.90
18153;DHT22;9202;51.578;7.734;2023-01-04T05:10:07;8.60;99.90
18153;DHT22;9202;51.578;7.734;2023-01-04T05:12:10;8.60;99.90
18153;DHT22;9202;51.578;7.734;2023-01-04T05:14:31;8.60;99.90
18153;DHT22;9202;51.578;7.734;2023-01-04T05:16:34;8.70;99.90
18153;DHT22;9202;51.578;7.734;2023-01-04T05:18:36;8.60;99.90
18153;DHT22;9202;51.578;7.734;2023-01-04T05:20:39;8.70;99.90
18153;DHT22;9202;51.578;7.734;2023-01-04T05:22:41;8.80;99.90
18153;DHT22;9202;51.578;7.734;2023-01-04T05:24:44;8.70;99.90
18153;DHT22;9202;51.578;7.734;2023-01-04T05:26:46;8.70;99.90
18153;DHT22;9202;51.578;7.734;2023-01-04T05:28:49;8.70;99.90
18153;DHT22;9202;51.578;7.734;2023-01-04T05:30:53;8.70;99.90
18153;DHT22;9202;51.578;7.734;2023-01-04T05:32:56;8.80;99.90
18153;DHT22;9202;51.578;7.734;2023-01-04T05:34:59;8.80;99.90
18153;DHT22;9202;51.578;7.734;2023-01-04T05:37:01;8.80;99.90
18153;DHT22;9202;51.578;7.734;2023-01-04T05:39:04;8.80;99.90
18153;DHT22;9202;51.578;7.734;2023-01-04T05:41:06;8.80;99.90
18153;DHT22;9202;51.578;7.734;2023-01-04T05:43:11;8.80;99.90
18153;DHT22;9202;51.578;7.734;2023-01-04T05:45:14;8.80;99.90
18153;DHT22;9202;51.578;7.734;2023-01-04T05:47:18;8.90;99.90
18153;DHT22;9202;51.578;7.734;2023-01-04T05:49:20;8.90;99.90
18153;DHT22;9202;51.578;7.734;2023-01-04T05:51:23;8.90;99.90
18153;DHT22;9202;51.578;7.734;2023-01-04T05:53:25;8.90;99.90
18153;DHT22;9202;51.578;7.734;2023-01-04T05:55:28;9.00;99.90
18153;DHT22;9202;51.578;7.734;2023-01-04T05:57:30;9.00;99.90
18153;DHT22;9202;51.578;7.734;2023-01-04T05:59:33;9.00;99.90
18153;DHT22;9202;51.578;7.734;2023-01-04T06:01:37;9.00;99.90
18153;DHT22;9202;51.578;7.734;2023-01-04T06:03:40;9.10;99.90
18153;DHT22;9202;51.578;7.734;2023-01-04T06:05:42;9.10;99.90
18153;DHT22;9202;51.578;7.734;2023-01-04T06:07:45;9.20;99.90
18153;DHT22;9202;51.578;7.734;2023-01-04T06:09:48;9.20;99.90
18153;DHT22;9202;51.578;7.734;2023-01-04T06:11:50;9.20;99.90
18153;DHT22;9202;51.578;7.734;2023-01-04T06:13:53;9.20;99.90
18153;DHT22;9202;51.578;7.734;2023-01-04T06:15:55;9.10;99.90
18153;DHT22;9202;51.578;7.734;2023-01-04T06:17:58;9.20;99.90
18153;DHT22;9202;51.578;7.734;2023-01-04T06:20:00;9.20;99.90
18153;DHT22;9202;51.578;7.734;2023-01-04T06:22:03;9.20;99.90
18153;DHT22;9202;51.578;7.734;2023-01-04T06:24:05;9.20;99.90
18153;DHT22;9202;51.578;7.734;2023-01-04T06:26:08;9.20;99.90
18153;DHT22;9202;51.578;7.734;2023-01-04T06:28:10;9.40;99.90
18153;DHT22;9202;51.578;7.734;2023-01-04T06:30:13;9.50;99.90
18153;DHT22;9202;51.578;7.734;2023-01-04T06:32:15;9.40;99.90
18153;DHT22;9202;51.578;7.734;2023-01-04T06:34:18;9.50;99.90
18153;DHT22;9202;51.578;7.734;2023-01-04T06:36:22;9.50;99.90
18153;DHT22;9202;51.578;7.734;2023-01-04T06:38:25;9.50;99.90
18153;DHT22;9202;51.578;7.734;2023-01-04T06:40:28;9.50;99.90
18153;DHT22;9202;51.578;7.734;2023-01-04T06:42:30;9.50;99.90
18153;DHT22;9202;51.578;7.734;2023-01-04T06:44:48;9.50;99.90
18153;DHT22;9202;51.578;7.734;2023-01-04T06:46:50;9.50;99.90
18153;DHT22;9202;51.578;7.734;2023-01-04T06:48:53;9.60;99.90
18153;DHT22;9202;51.578;7.734;2023-01-04T06:50:55;9.50;99.90
18153;DHT22;9202;51.578;7.734;2023-01-04T06:52:58;9.60;99.90
18153;DHT22;9202;51.578;7.734;2023-01-04T06:55:00;9.60;99.90
18153;DHT22;9202;51.578;7.734;2023-01-04T06:57:03;9.60;99.90
18153;DHT22;9202;51.578;7.734;2023-01-04T06:59:06;9.60;99.90
18153;DHT22;9202;51.578;7.734;2023-01-04T07:01:10;9.60;99.90
18153;DHT22;9202;51.578;7.734;2023-01-04T07:03:13;9.70;99.90
18153;DHT22;9202;51.578;7.734;2023-01-04T07:05:17;9.80;99.90
18153;DHT22;9202;51.578;7.734;2023-01-04T07:07:20;9.80;99.90
18153;DHT22;9202;51.578;7.734;2023-01-04T07:09:22;9.80;99.90
18153;DHT22;9202;51.578;7.734;2023-01-04T07:11:25;9.70;99.90
18153;DHT22;9202;51.578;7.734;2023-01-04T07:13:27;9.80;99.90
18153;DHT22;9202;51.578;7.734;2023-01-04T07:15:30;9.70;99.90
18153;DHT22;9202;51.578;7.734;2023-01-04T07:17:34;9.70;99.90
18153;DHT22;9202;51.578;7.734;2023-01-04T07:19:37;9.70;99.90
18153;DHT22;9202;51.578;7.734;2023-01-04T07:21:39;9.70;99.90
18153;DHT22;9202;51.578;7.734;2023-01-04T07:23:42;9.70;99.90
18153;DHT22;9202;51.578;7.734;2023-01-04T07:25:45;9.70;99.90
18153;DHT22;9202;51.578;7.734;2023-01-04T07:27:50;9.70;99.90
18153;DHT22;9202;51.578;7.734;2023-01-04T07:30:00;9.80;99.90
18153;DHT22;9202;51.578;7.734;2023-01-04T07:32:04;10.30;99.90
18153;DHT22;9202;51.578;7.734;2023-01-04T07:34:09;9.70;99.90
18153;DHT22;9202;51.578;7.734;2023-01-04T07:36:12;9.70;99.90
18153;DHT22;9202;51.578;7.734;2023-01-04T07:38:16;9.80;99.90
18153;DHT22;9202;51.578;7.734;2023-01-04T07:40:20;9.70;99.90
18153;DHT22;9202;51.578;7.734;2023-01-04T07:42:24;9.80;99.90
18153;DHT22;9202;51.578;7.734;2023-01-04T07:44:27;9.80;99.90
18153;DHT22;9202;51.578;7.734;2023-01-04T07:46:32;9.80;99.90
18153;DHT22;9202;51.578;7.734;2023-01-04T07:48:36;9.70;99.90
18153;DHT22;9202;51.578;7.734;2023-01-04T07:50:38;9.80;99.90
18153;DHT22;9202;51.578;7.734;2023-01-04T07:52:41;9.80;99.90
18153;DHT22;9202;51.578;7.734;2023-01-04T07:54:43;9.80;99.90
18153;DHT22;9202;51.578;7.734;2023-01-04T07:56:46;9.70;99.90
18153;DHT22;9202;51.578;7.734;2023-01-04T07:58:49;9.70;99.90
18153;DHT22;9202;51.578;7.734;2023-01-04T08:00:51;9.70;99.90
18153;DHT22;9202;51.578;7.734;2023-01-04T08:02:54;9.60;99.90
18153;DHT22;9202;51.578;7.734;2023-01-04T08:04:57;9.60;99.90
18153;DHT22;9202;51.578;7.734;2023-01-04T08:07:00;9.50;99.90
18153;DHT22;9202;51.578;7.734;2023-01-04T08:09:02;9.40;99.90
18153;DHT22;9202;51.578;7.734;2023-01-04T08:11:06;9.40;99.90
18153;DHT22;9202;51.578;7.734;2023-01-04T08:13:09;9.40;99.90
18153;DHT22;9202;51.578;7.734;2023-01-04T08:15:11;9.40;99.90
18153;DHT22;9202;51.578;7.734;2023-01-04T08:17:15;9.40;99.90
18153;DHT22;9202;51.578;7.734;2023-01-04T08:19:18;9.40;99.90
18153;DHT22;9202;51.578;7.734;2023-01-04T08:21:21;9.40;99.90
18153;DHT22;9202;51.578;7.734;2023-01-04T08:23:25;9.40;99.90
18153;DHT22;9202;51.578;7.734;2023-01-04T08:25:28;9.40;99.90
18153;DHT22;9202;51.578;7.734;2023-01-04T08:27:30;9.40;99.90
18153;DHT22;9202;51.578;7.734;2023-01-04T08:29:33;9.50;99.90
18153;DHT22;9202;51.578;7.734;2023-01-04T08:31:37;9.50;99.90
18153;DHT22;9202;51.578;7.734;2023-01-04T08:33:40;9.50;99.90
18153;DHT22;9202;51.578;7.734;2023-01-04T08:35:43;9.50;99.90
18153;DHT22;9202;51.578;7.734;2023-01-04T08:37:45;9.50;99.90
18153;DHT22;9202;51.578;7.734;2023-01-04T08:39:48;9.50;99.90
18153;DHT22;9202;51.578;7.734;2023-01-04T08:41:51;9.50;99.90
18153;DHT22;9202;51.578;7.734;2023-01-04T08:43:56;9.50;99.90
18153;DHT22;9202;51.578;7.734;2023-01-04T08:45:58;9.60;99.90
18153;DHT22;9202;51.578;7.734;2023-01-04T08:48:01;9.60;99.90
18153;DHT22;9202;51.578;7.734;2023-01-04T08:50:04;9.60;99.90
18153;DHT22;9202;51.578;7.734;2023-01-04T08:52:08;9.70;99.90
18153;DHT22;9202;51.578;7.734;2023-01-04T08:54:12;9.70;99.90
18153;DHT22;9202;51.578;7.734;2023-01-04T08:56:15;9.70;99.90
18153;DHT22;9202;51.578;7.734;2023-01-04T08:58:17;9.70;99.90
18153;DHT22;9202;51.578;7.734;2023-01-04T09:00:20;9.80;99.90
18153;DHT22;9202;51.578;7.734;2023-01-04T09:02:24;9.80;99.90
18153;DHT22;9202;51.578;7.734;2023-01-04T09:04:28;9.80;99.90
18153;DHT22;9202;51.578;7.734;2023-01-04T09:06:30;9.80;99.90
18153;DHT22;9202;51.578;7.734;2023-01-04T09:08:33;9.80;99.90
18153;DHT22;9202;51.578;7.734;2023-01-04T09:10:36;9.80;99.90
18153;DHT22;9202;51.578;7.734;2023-01-04T09:12:39;9.80;99.90
18153;DHT22;9202;51.578;7.734;2023-01-04T09:14:43;9.90;99.90
18153;DHT22;9202;51.578;7.734;2023-01-04T09:16:46;9.90;99.90
18153;DHT22;9202;51.578;7.734;2023-01-04T09:18:48;9.90;99.90
18153;DHT22;9202;51.578;7.734;2023-01-04T09:20:51;9.90;99.90
18153;DHT22;9202;51.578;7.734;2023-01-04T09:22:53;9.90;99.90
18153;DHT22;9202;51.578;7.734;2023-01-04T09:24:57;10.00;99.90
18153;DHT22;9202;51.578;7.734;2023-01-04T09:27:00;10.00;99.90
18153;DHT22;9202;51.578;7.734;2023-01-04T09:29:02;10.10;99.90
18153;DHT22;9202;51.578;7.734;2023-01-04T09:31:06;10.10;99.90
18153;DHT22;9202;51.578;7.734;2023-01-04T09:33:09;10.10;99.90
18153;DHT22;9202;51.578;7.734;2023-01-04T09:35:12;10.20;99.90
18153;DHT22;9202;51.578;7.734;2023-01-04T09:37:14;10.20;99.90
18153;DHT22;9202;51.578;7.734;2023-01-04T09:39:17;10.20;99.90
18153;DHT22;9202;51.578;7.734;2023-01-04T09:41:23;10.20;99.90
18153;DHT22;9202;51.578;7.734;2023-01-04T09:43:26;10.30;99.90
18153;DHT22;9202;51.578;7.734;2023-01-04T09:45:30;10.30;99.90
18153;DHT22;9202;51.578;7.734;2023-01-04T09:47:35;10.20;99.90
18153;DHT22;9202;51.578;7.734;2023-01-04T09:49:39;10.30;99.90
18153;DHT22;9202;51.578;7.734;2023-01-04T09:51:47;10.30;99.90
18153;DHT22;9202;51.578;7.734;2023-01-04T09:53:49;10.20;99.90
18153;DHT22;9202;51.578;7.734;2023-01-04T09:55:54;10.30;99.90
18153;DHT22;9202;51.578;7.734;2023-01-04T09:57:59;10.30;99.90
18153;DHT22;9202;51.578;7.734;2023-01-04T10:00:04;10.30;99.90
18153;DHT22;9202;51.578;7.734;2023-01-04T10:02:10;10.30;99.90
18153;DHT22;9202;51.578;7.734;2023-01-04T10:04:15;10.30;99.90
18153;DHT22;9202;51.578;7.734;2023-01-04T10:06:19;10.30;99.90
18153;DHT22;9202;51.578;7.734;2023-01-04T10:08:21;10.30;99.90
18153;DHT22;9202;51.578;7.734;2023-01-04T10:10:39;10.30;99.90
18153;DHT22;9202;51.578;7.734;2023-01-04T10:12:36;10.40;99.90
18153;DHT22;9202;51.578;7.734;2023-01-04T10:14:41;10.40;99.90
18153;DHT22;9202;51.578;7.734;2023-01-04T10:16:48;10.40;99.90
18153;DHT22;9202;51.578;7.734;2023-01-04T10:19:00;10.40;99.90
18153;DHT22;9202;51.578;7.734;2023-01-04T10:21:12;10.40;99.90
18153;DHT22;9202;51.578;7.734;2023-01-04T10:23:19;10.50;99.90
18153;DHT22;9202;51.578;7.734;2023-01-04T10:25:23;10.50;99.90
18153;DHT22;9202;51.578;7.734;2023-01-04T10:27:30;10.50;99.90
18153;DHT22;9202;51.578;7.734;2023-01-04T10:29:38;10.60;99.90
18153;DHT22;9202;51.578;7.734;2023-01-04T10:31:42;10.50;99.90
18153;DHT22;9202;51.578;7.734;2023-01-04T10:33:47;10.50;99.90
18153;DHT22;9202;51.578;7.734;2023-01-04T10:36:09;10.60;99.90
18153;DHT22;9202;51.578;7.734;2023-01-04T10:38:12;10.60;99.90
18153;DHT22;9202;51.578;7.734;2023-01-04T10:40:16;10.60;99.90
18153;DHT22;9202;51.578;7.734;2023-01-04T10:42:19;10.70;99.90
18153;DHT22;9202;51.578;7.734;2023-01-04T10:44:24;10.70;99.90
18153;DHT22;9202;51.578;7.734;2023-01-04T10:46:28;10.80;99.90
18153;DHT22;9202;51.578;7.734;2023-01-04T10:48:34;10.90;99.90
18153;DHT22;9202;51.578;7.734;2023-01-04T10:50:37;11.00;99.90
18153;DHT22;9202;51.578;7.734;2023-01-04T10:52:42;11.00;99.90
18153;DHT22;9202;51.578;7.734;2023-01-04T10:54:48;10.90;99.90
18153;DHT22;9202;51.578;7.734;2023-01-04T10:56:56;10.90;99.90
18153;DHT22;9202;51.578;7.734;2023-01-04T10:59:04;10.90;99.90
18153;DHT22;9202;51.578;7.734;2023-01-04T11:01:07;10.90;99.90
18153;DHT22;9202;51.578;7.734;2023-01-04T11:03:12;10.90;99.90
18153;DHT22;9202;51.578;7.734;2023-01-04T11:05:17;10.80;99.90
18153;DHT22;9202;51.578;7.734;2023-01-04T11:07:22;10.80;99.90
18153;DHT22;9202;51.578;7.734;2023-01-04T11:09:26;10.80;99.90
18153;DHT22;9202;51.578;7.734;2023-01-04T11:11:35;10.80;99.90
18153;DHT22;9202;51.578;7.734;2023-01-04T11:13:41;10.80;99.90
18153;DHT22;9202;51.578;7.734;2023-01-04T11:15:43;10.80;99.90
18153;DHT22;9202;51.578;7.734;2023-01-04T11:17:48;10.80;99.90
18153;DHT22;9202;51.578;7.734;2023-01-04T11:19:52;10.80;99.90
18153;DHT22;9202;51.578;7.734;2023-01-04T11:21:55;10.70;99.90
18153;DHT22;9202;51.578;7.734;2023-01-04T11:23:59;10.70;99.90
18153;DHT22;9202;51.578;7.734;2023-01-04T11:26:06;10.80;99.90
18153;DHT22;9202;51.578;7.734;2023-01-04T11:28:13;10.80;99.90
18153;DHT22;9202;51.578;7.734;2023-01-04T11:30:17;10.80;99.90
18153;DHT22;9202;51.578;7.734;2023-01-04T11:32:23;10.80;99.90
18153;DHT22;9202;51.578;7.734;2023-01-04T11:34:43;10.80;99.90
18153;DHT22;9202;51.578;7.734;2023-01-04T11:36:46;10.80;99.90
18153;DHT22;9202;51.578;7.734;2023-01-04T11:38:53;10.90;99.90
18153;DHT22;9202;51.578;7.734;2023-01-04T11:40:57;10.90;99.90
18153;DHT22;9202;51.578;7.734;2023-01-04T11:43:10;10.90;99.90
18153;DHT22;9202;51.578;7.734;2023-01-04T11:45:21;11.00;99.90
18153;DHT22;9202;51.578;7.734;2023-01-04T11:47:24;11.00;99.90
18153;DHT22;9202;51.578;7.734;2023-01-04T11:49:33;11.00;99.90
18153;DHT22;9202;51.578;7.734;2023-01-04T11:51:37;11.10;99.90
18153;DHT22;9202;51.578;7.734;2023-01-04T11:53:42;11.10;99.90
18153;DHT22;9202;51.578;7.734;2023-01-04T11:55:45;11.20;99.90
18153;DHT22;9202;51.578;7.734;2023-01-04T11:57:47;11.20;99.90
18153;DHT22;9202;51.578;7.734;2023-01-04T12:00:06;11.30;99.90
18153;DHT22;9202;51.578;7.734;2023-01-04T12:02:14;11.30;99.90
18153;DHT22;9202;51.578;7.734;2023-01-04T12:04:19;11.30;99.90
18153;DHT22;9202;51.578;7.734;2023-01-04T12:06:23;11.30;99.90
18153;DHT22;9202;51.578;7.734;2023-01-04T12:08:27;11.30;99.90
18153;DHT22;9202;51.578;7.734;2023-01-04T12:10:31;11.30;99.90
18153;DHT22;9202;51.578;7.734;2023-01-04T12:12:33;11.40;99.90
18153;DHT22;9202;51.578;7.734;2023-01-04T12:14:36;11.40;99.90
18153;DHT22;9202;51.578;7.734;2023-01-04T12:16:42;11.30;99.90
18153;DHT22;9202;51.578;7.734;2023-01-04T12:18:45;11.30;99.90
18153;DHT22;9202;51.578;7.734;2023-01-04T12:20:48;11.30;99.90
18153;DHT22;9202;51.578;7.734;2023-01-04T12:22:50;11.30;99.90
18153;DHT22;9202;51.578;7.734;2023-01-04T12:24:53;11.30;99.90
18153;DHT22;9202;51.578;7.734;2023-01-04T12:26:58;11.30;99.90
18153;DHT22;9202;51.578;7.734;2023-01-04T12:31:30;11.30;99.90
18153;DHT22;9202;51.578;7.734;2023-01-04T12:33:36;11.30;99.90
18153;DHT22;9202;51.578;7.734;2023-01-04T12:38:09;11.30;99.90
18153;DHT22;9202;51.578;7.734;2023-01-04T12:42:33;11.40;99.90
18153;DHT22;9202;51.578;7.734;2023-01-04T12:46:56;11.30;99.90
18153;DHT22;9202;51.578;7.734;2023-01-04T12:51:37;11.30;99.90
18153;DHT22;9202;51.578;7.734;2023-01-04T12:53:48;11.30;99.90
18153;DHT22;9202;51.578;7.734;2023-01-04T12:55:52;11.30;99.90
18153;DHT22;9202;51.578;7.734;2023-01-04T12:57:55;11.30;99.90
18153;DHT22;9202;51.578;7.734;2023-01-04T12:59:59;11.40;99.90
18153;DHT22;9202;51.578;7.734;2023-01-04T13:02:14;11.30;99.90
18153;DHT22;9202;51.578;7.734;2023-01-04T13:04:28;11.40;99.90
18153;DHT22;9202;51.578;7.734;2023-01-04T13:06:31;11.40;99.90
18153;DHT22;9202;51.578;7.734;2023-01-04T13:08:38;11.30;99.90
18153;DHT22;9202;51.578;7.734;2023-01-04T13:10:41;11.40;99.90
18153;DHT22;9202;51.578;7.734;2023-01-04T13:15:14;11.40;99.90
18153;DHT22;9202;51.578;7.734;2023-01-04T13:17:20;11.40;99.90
18153;DHT22;9202;51.578;7.734;2023-01-04T13:19:24;11.40;99.90
18153;DHT22;9202;51.578;7.734;2023-01-04T13:21:27;11.40;99.90
18153;DHT22;9202;51.578;7.734;2023-01-04T13:23:30;11.40;99.90
18153;DHT22;9202;51.578;7.734;2023-01-04T13:25:33;11.40;99.90
18153;DHT22;9202;51.578;7.734;2023-01-04T13:27:43;11.40;99.90
18153;DHT22;9202;51.578;7.734;2023-01-04T13:30:03;11.50;99.90
18153;DHT22;9202;51.578;7.734;2023-01-04T13:32:08;11.50;99.90
18153;DHT22;9202;51.578;7.734;2023-01-04T13:34:14;11.50;99.90
18153;DHT22;9202;51.578;7.734;2023-01-04T13:36:18;11.50;99.90
18153;DHT22;9202;51.578;7.734;2023-01-04T13:38:21;11.60;99.90
18153;DHT22;9202;51.578;7.734;2023-01-04T13:40:24;11.60;99.90
18153;DHT22;9202;51.578;7.734;2023-01-04T13:42:28;11.70;99.90
18153;DHT22;9202;51.578;7.734;2023-01-04T13:44:41;11.60;99.90
18153;DHT22;9202;51.578;7.734;2023-01-04T13:46:44;11.60;99.90
18153;DHT22;9202;51.578;7.734;2023-01-04T13:48:50;11.70;99.90